createdAt,value
2023-04-26T00:00:11.842Z,59.47
2023-04-26T00:05:14.256Z,59.19
2023-04-26T00:10:16.037Z,59.42
2023-04-26T00:15:17.604Z,60.18
2023-04-26T00:20:19.368Z,60.23
2023-04-26T00:25:21.019Z,60.50
2023-04-26T00:30:22.763Z,60.88
2023-04-26T00:35:24.572Z,61.57
2023-04-26T00:40:26.184Z,61.45
2023-04-26T00:45:27.872Z,61.95
2023-04-26T00:50:30.260Z,62.74
2023-04-26T00:55:31.927Z,62.33
2023-04-26T01:00:34.097Z,62.23
2023-04-26T01:05:36.742Z,62.41
2023-04-26T01:10:39.266Z,62.85
2023-04-26T01:15:47.738Z,62.82
2023-04-26T01:20:49.450Z,63.31
2023-04-26T01:25:51.280Z,62.66
2023-04-26T01:30:53.026Z,63.76
2023-04-26T01:35:54.701Z,63.29
2023-04-26T01:40:57.455Z,63.60
2023-04-26T01:45:59.212Z,63.18
2023-04-26T01:51:04.605Z,63.45
2023-04-26T01:56:08.258Z,63.50
2023-04-26T02:01:10.131Z,62.95
2023-04-26T02:06:12.113Z,63.41
2023-04-26T02:11:13.792Z,62.96
2023-04-26T02:16:16.880Z,63.00
2023-04-26T02:21:21.501Z,63.46
2023-04-26T02:26:23.128Z,62.92
2023-04-26T02:31:24.857Z,63.48
2023-04-26T02:36:27.294Z,63.66
2023-04-26T02:41:32.832Z,63.05
2023-04-26T02:46:34.531Z,63.30
2023-04-26T02:51:36.353Z,63.22
2023-04-26T02:56:38.211Z,63.90
2023-04-26T03:01:39.908Z,63.91
2023-04-26T03:06:41.635Z,64.18
2023-04-26T03:11:43.177Z,64.76
2023-04-26T03:16:44.962Z,63.79
2023-04-26T03:21:46.710Z,64.55
2023-04-26T03:26:48.384Z,65.04
2023-04-26T03:31:50.410Z,64.98
2023-04-26T03:36:52.085Z,65.21
2023-04-26T03:41:54.112Z,65.33
2023-04-26T03:46:56.094Z,65.98
2023-04-26T03:51:57.936Z,65.10
2023-04-26T03:56:59.506Z,66.22
2023-04-26T04:02:01.232Z,65.43
2023-04-26T04:07:03.126Z,64.78
2023-04-26T04:12:04.890Z,65.26
2023-04-26T04:17:08.529Z,65.23
2023-04-26T04:22:10.346Z,65.24
2023-04-26T04:27:14.984Z,65.23
2023-04-26T04:32:17.559Z,65.38
2023-04-26T04:37:19.756Z,64.43
2023-04-26T04:42:22.323Z,64.53
2023-04-26T04:47:25.754Z,64.53
2023-04-26T04:52:28.034Z,63.96
2023-04-26T04:57:30.217Z,63.93
2023-04-26T05:02:33.270Z,63.40
2023-04-26T05:07:35.069Z,62.80
2023-04-26T05:12:37.118Z,62.20
2023-04-26T05:17:39.008Z,62.15
2023-04-26T05:22:55.887Z,62.93
2023-04-26T05:27:57.531Z,62.94
2023-04-26T05:33:10.267Z,61.43
2023-04-26T05:38:21.943Z,61.18
2023-04-26T05:43:23.517Z,60.63
2023-04-26T05:48:25.305Z,59.68
2023-04-26T05:53:26.989Z,60.97
2023-04-26T05:58:28.796Z,60.66
2023-04-26T06:03:31.012Z,59.86
2023-04-26T06:08:33.485Z,59.70
2023-04-26T06:13:35.313Z,59.22
2023-04-26T06:18:37.311Z,58.50
2023-04-26T06:23:38.975Z,57.41
2023-04-26T06:28:42.212Z,58.41
2023-04-26T06:33:44.386Z,57.29
2023-04-26T06:38:47.678Z,56.99
2023-04-26T06:43:49.429Z,56.69
2023-04-26T06:48:56.177Z,55.52
2023-04-26T06:54:00.937Z,54.56
2023-04-26T06:59:04.881Z,55.00
2023-04-26T07:04:13.779Z,54.85
2023-04-26T07:09:15.440Z,52.99
2023-04-26T07:14:18.951Z,53.80
2023-04-26T07:19:20.572Z,53.57
2023-04-26T07:24:22.110Z,52.12
2023-04-26T07:29:23.814Z,52.33
2023-04-26T07:34:26.671Z,52.40
2023-04-26T07:39:28.292Z,52.06
2023-04-26T07:44:29.962Z,50.37
2023-04-26T07:49:31.648Z,50.73
2023-04-26T07:54:33.288Z,50.17
2023-04-26T07:59:34.978Z,49.60
2023-04-26T08:04:36.787Z,49.44
2023-04-26T08:09:38.462Z,47.54
2023-04-26T08:14:40.359Z,48.04
2023-04-26T08:19:42.068Z,48.48
2023-04-26T08:24:48.132Z,48.76
2023-04-26T08:29:49.752Z,48.50
2023-04-26T08:34:51.321Z,49.21
2023-04-26T08:39:52.880Z,49.19
2023-04-26T08:44:54.750Z,49.41
2023-04-26T08:50:02.732Z,48.54
2023-04-26T08:55:05.447Z,48.54
2023-04-26T09:00:13.465Z,47.30
2023-04-26T09:05:15.358Z,46.74
2023-04-26T09:10:21.632Z,44.87
2023-04-26T09:15:24.600Z,46.39
2023-04-26T09:20:28.663Z,45.92
2023-04-26T09:25:31.351Z,46.20
2023-04-26T09:30:39.796Z,46.72
2023-04-26T09:35:42.855Z,44.67
2023-04-26T09:40:49.706Z,43.64
2023-04-26T09:45:56.768Z,44.59
2023-04-26T09:51:04.308Z,45.81
2023-04-26T09:56:19.695Z,44.45
2023-04-26T10:01:21.351Z,42.68
2023-04-26T10:06:23.491Z,42.87
2023-04-26T10:11:26.707Z,42.25
2023-04-26T10:16:28.840Z,41.75
2023-04-26T10:21:32.609Z,43.54
2023-04-26T10:26:48.783Z,44.24
2023-04-26T10:32:02.400Z,44.52
2023-04-26T10:37:08.598Z,43.61
2023-04-26T10:42:24.690Z,41.96
2023-04-26T10:47:29.006Z,43.05
2023-04-26T10:52:30.869Z,43.76
2023-04-26T10:57:49.314Z,43.51
2023-04-26T11:03:05.082Z,43.19
2023-04-26T11:08:20.798Z,42.71
2023-04-26T11:13:22.434Z,44.40
2023-04-26T11:18:24.142Z,44.57
2023-04-26T11:23:28.160Z,43.27
2023-04-26T11:28:34.531Z,43.06
2023-04-26T11:33:36.315Z,42.71
2023-04-26T11:38:38.079Z,42.20
2023-04-26T11:43:40.400Z,41.17
2023-04-26T11:48:42.372Z,41.30
2023-04-26T11:53:44.512Z,41.51
2023-04-26T11:58:51.668Z,42.83
2023-04-26T12:03:55.798Z,43.72
2023-04-26T12:08:57.520Z,42.92
2023-04-26T12:13:59.751Z,43.08
2023-04-26T12:19:05.657Z,43.17
2023-04-26T12:24:07.584Z,42.73
2023-04-26T12:29:09.425Z,41.95
2023-04-26T12:34:11.160Z,41.90
2023-04-26T12:39:14.430Z,41.36
2023-04-26T12:44:16.257Z,42.06
2023-04-26T12:49:17.838Z,42.24
2023-04-26T12:54:19.497Z,42.26
2023-04-26T12:59:21.080Z,42.28
2023-04-26T13:04:22.819Z,43.93
2023-04-26T13:09:24.545Z,44.20
2023-04-26T13:14:26.209Z,44.13
2023-04-26T13:19:27.758Z,43.75
2023-04-26T13:24:29.354Z,42.66
2023-04-26T13:29:33.430Z,43.17
2023-04-26T13:34:35.776Z,43.73
2023-04-26T13:39:37.358Z,44.33
2023-04-26T13:44:39.544Z,42.92
2023-04-26T13:49:41.817Z,43.99
2023-04-26T13:54:43.520Z,45.34
2023-04-26T13:59:45.625Z,43.63
2023-04-26T14:04:47.525Z,44.80
2023-04-26T14:09:50.293Z,43.11
2023-04-26T14:14:51.910Z,43.54
2023-04-26T14:19:54.817Z,44.64
2023-04-26T14:24:56.697Z,47.18
2023-04-26T14:29:58.259Z,43.68
2023-04-26T14:34:59.836Z,43.62
2023-04-26T14:40:01.414Z,46.56
2023-04-26T14:45:03.443Z,43.56
2023-04-26T14:50:07.713Z,44.50
2023-04-26T14:55:09.475Z,43.63
2023-04-26T15:00:15.048Z,44.12
2023-04-26T15:05:16.898Z,43.53
2023-04-26T15:10:18.623Z,44.94
2023-04-26T15:15:20.402Z,47.93
2023-04-26T15:20:22.333Z,46.35
2023-04-26T15:25:23.906Z,43.57
2023-04-26T15:30:25.711Z,44.57
2023-04-26T15:35:27.337Z,44.80
2023-04-26T15:40:28.909Z,47.56
2023-04-26T15:45:30.497Z,46.27
2023-04-26T15:50:32.111Z,47.29
2023-04-26T15:55:33.878Z,43.59
2023-04-26T16:00:36.421Z,44.04
2023-04-26T16:05:37.968Z,44.50
2023-04-26T16:10:39.524Z,45.25
2023-04-26T16:15:41.289Z,45.01
2023-04-26T16:20:42.927Z,44.64
2023-04-26T16:25:44.649Z,44.32
2023-04-26T16:30:46.419Z,43.90
2023-04-26T16:35:57.788Z,44.45
2023-04-26T16:41:01.639Z,46.36
2023-04-26T16:46:07.563Z,45.32
2023-04-26T16:51:09.415Z,45.33
2023-04-26T16:56:11.065Z,46.85
2023-04-26T17:01:12.856Z,46.33
2023-04-26T17:06:14.438Z,45.73
2023-04-26T17:11:16.577Z,45.99
2023-04-26T17:16:18.221Z,46.26
2023-04-26T17:21:19.878Z,46.03
2023-04-26T17:26:21.911Z,46.18
2023-04-26T17:31:23.498Z,46.77
2023-04-26T17:36:25.102Z,48.75
2023-04-26T17:41:26.748Z,47.79
2023-04-26T17:46:28.463Z,47.46
2023-04-26T17:51:30.138Z,46.05
2023-04-26T17:56:31.751Z,47.68
2023-04-26T18:01:36.393Z,47.56
2023-04-26T18:06:38.159Z,49.25
2023-04-26T18:11:40.038Z,49.55
2023-04-26T18:16:42.213Z,50.09
2023-04-26T18:21:43.833Z,49.44
2023-04-26T18:26:45.477Z,50.34
2023-04-26T18:31:47.312Z,49.84
2023-04-26T18:36:48.941Z,49.26
2023-04-26T18:41:52.091Z,50.20
2023-04-26T18:46:55.825Z,49.67
2023-04-26T18:51:57.558Z,49.40
2023-04-26T18:57:01.096Z,49.48
2023-04-26T19:02:04.938Z,50.25
2023-04-26T19:07:06.824Z,50.30
2023-04-26T19:12:08.950Z,50.36
2023-04-26T19:17:11.318Z,50.27
2023-04-26T19:22:13.152Z,50.71
2023-04-26T19:27:14.777Z,50.64
2023-04-26T19:32:18.880Z,50.81
2023-04-26T19:37:20.677Z,51.63
2023-04-26T19:42:22.258Z,51.25
2023-04-26T19:47:23.897Z,53.29
2023-04-26T19:52:25.613Z,52.48
2023-04-26T19:57:27.165Z,52.40
2023-04-26T20:02:28.891Z,52.92
2023-04-26T20:07:30.644Z,53.69
2023-04-26T20:12:33.208Z,54.13
2023-04-26T20:17:34.780Z,54.11
2023-04-26T20:22:36.805Z,55.02
2023-04-26T20:27:38.595Z,54.75
2023-04-26T20:32:40.564Z,55.26
2023-04-26T20:37:42.222Z,55.03
2023-04-26T20:42:43.882Z,55.77
2023-04-26T20:47:45.764Z,56.48
2023-04-26T20:52:47.432Z,57.30
2023-04-26T20:57:49.340Z,57.28
2023-04-26T21:02:51.011Z,57.72
2023-04-26T21:07:52.698Z,58.12
2023-04-26T21:12:54.347Z,58.14
2023-04-26T21:17:56.044Z,57.87
2023-04-26T21:22:57.719Z,59.46
2023-04-26T21:27:59.307Z,60.92
2023-04-26T21:33:00.966Z,61.28
2023-04-26T21:38:02.624Z,61.51
2023-04-26T21:43:05.294Z,61.46
2023-04-26T21:48:07.856Z,61.42
2023-04-26T21:53:09.494Z,61.29
2023-04-26T21:58:11.223Z,61.68
2023-04-26T22:03:13.555Z,61.67
2023-04-26T22:08:15.455Z,61.52
2023-04-26T22:13:17.077Z,63.99
2023-04-26T22:18:18.901Z,63.98
2023-04-26T22:23:20.842Z,62.91
2023-04-26T22:28:22.512Z,63.46
2023-04-26T22:33:24.101Z,63.36
2023-04-26T22:38:25.800Z,62.87
2023-04-26T22:43:27.376Z,63.04
2023-04-26T22:48:29.032Z,63.58
2023-04-26T22:53:30.664Z,63.72
2023-04-26T22:58:32.312Z,63.59
2023-04-26T23:03:37.085Z,63.45
2023-04-26T23:08:38.743Z,63.21
2023-04-26T23:13:40.289Z,63.87
2023-04-26T23:18:42.481Z,63.70
2023-04-26T23:23:44.100Z,64.33
2023-04-26T23:28:45.778Z,65.02
2023-04-26T23:33:47.332Z,65.31
2023-04-26T23:38:48.879Z,65.83
2023-04-26T23:43:50.437Z,66.78
2023-04-26T23:48:52.020Z,66.67
2023-04-26T23:53:53.662Z,67.24
2023-04-26T23:58:55.203Z,67.46
